sensor_id;sensor_type;location;lat;lon;timestamp;P1;durP1;ratioP1;P2;durP2;ratioP2
52730;SDS011;38624;53.242;6.974;2023-02-19T00:00:59;28.85;;;9.07;;
52730;SDS011;38624;53.242;6.974;2023-02-19T00:03:25;33.67;;;9.13;;
52730;SDS011;38624;53.242;6.974;2023-02-19T00:05:51;25.20;;;9.20;;
52730;SDS011;38624;53.242;6.974;2023-02-19T00:08:17;32.67;;;10.02;;
52730;SDS011;38624;53.242;6.974;2023-02-19T00:10:43;26.45;;;10.10;;
52730;SDS011;38624;53.242;6.974;2023-02-19T00:13:09;30.50;;;11.75;;
52730;SDS011;38624;53.242;6.974;2023-02-19T00:15:34;34.83;;;11.52;;
52730;SDS011;38624;53.242;6.974;2023-02-19T00:18:00;34.03;;;11.75;;
52730;SDS011;38624;53.242;6.974;2023-02-19T00:20:26;41.08;;;13.63;;
52730;SDS011;38624;53.242;6.974;2023-02-19T00:22:51;29.25;;;13.52;;
52730;SDS011;38624;53.242;6.974;2023-02-19T00:25:17;34.80;;;13.65;;
52730;SDS011;38624;53.242;6.974;2023-02-19T00:27:43;37.30;;;14.57;;
52730;SDS011;38624;53.242;6.974;2023-02-19T00:30:08;37.15;;;15.02;;
52730;SDS011;38624;53.242;6.974;2023-02-19T00:32:34;39.07;;;14.57;;
52730;SDS011;38624;53.242;6.974;2023-02-19T00:35:00;39.67;;;16.30;;
52730;SDS011;38624;53.242;6.974;2023-02-19T00:37:26;38.90;;;15.52;;
52730;SDS011;38624;53.242;6.974;2023-02-19T00:39:51;44.80;;;16.75;;
52730;SDS011;38624;53.242;6.974;2023-02-19T00:42:17;24.17;;;11.25;;
52730;SDS011;38624;53.242;6.974;2023-02-19T00:44:43;29.38;;;10.38;;
52730;SDS011;38624;53.242;6.974;2023-02-19T00:47:08;17.23;;;7.78;;
52730;SDS011;38624;53.242;6.974;2023-02-19T00:49:34;14.57;;;6.70;;
52730;SDS011;38624;53.242;6.974;2023-02-19T00:52:00;20.08;;;7.47;;
52730;SDS011;38624;53.242;6.974;2023-02-19T00:54:25;13.55;;;7.30;;
52730;SDS011;38624;53.242;6.974;2023-02-19T00:56:51;15.23;;;7.90;;
52730;SDS011;38624;53.242;6.974;2023-02-19T00:59:17;12.70;;;6.20;;
52730;SDS011;38624;53.242;6.974;2023-02-19T01:01:43;12.13;;;7.95;;
52730;SDS011;38624;53.242;6.974;2023-02-19T01:04:09;10.73;;;6.93;;
52730;SDS011;38624;53.242;6.974;2023-02-19T01:06:35;12.80;;;7.35;;
52730;SDS011;38624;53.242;6.974;2023-02-19T01:09:01;11.15;;;6.78;;
52730;SDS011;38624;53.242;6.974;2023-02-19T01:11:28;10.85;;;6.75;;
52730;SDS011;38624;53.242;6.974;2023-02-19T01:13:57;12.45;;;6.72;;
52730;SDS011;38624;53.242;6.974;2023-02-19T01:16:24;8.00;;;4.85;;
52730;SDS011;38624;53.242;6.974;2023-02-19T01:18:51;7.93;;;4.57;;
52730;SDS011;38624;53.242;6.974;2023-02-19T01:21:22;7.88;;;4.05;;
52730;SDS011;38624;53.242;6.974;2023-02-19T01:23:49;6.05;;;3.05;;
52730;SDS011;38624;53.242;6.974;2023-02-19T01:26:17;4.40;;;2.20;;
52730;SDS011;38624;53.242;6.974;2023-02-19T01:28:45;4.22;;;2.05;;
52730;SDS011;38624;53.242;6.974;2023-02-19T01:31:12;4.40;;;1.70;;
52730;SDS011;38624;53.242;6.974;2023-02-19T01:33:42;3.45;;;2.15;;
52730;SDS011;38624;53.242;6.974;2023-02-19T01:36:09;5.25;;;2.58;;
52730;SDS011;38624;53.242;6.974;2023-02-19T01:38:35;4.07;;;2.30;;
52730;SDS011;38624;53.242;6.974;2023-02-19T01:41:02;3.47;;;1.85;;
52730;SDS011;38624;53.242;6.974;2023-02-19T01:43:34;2.75;;;1.80;;
52730;SDS011;38624;53.242;6.974;2023-02-19T01:46:27;3.45;;;1.92;;
52730;SDS011;38624;53.242;6.974;2023-02-19T01:48:55;5.47;;;1.88;;
52730;SDS011;38624;53.242;6.974;2023-02-19T01:51:28;3.78;;;2.10;;
52730;SDS011;38624;53.242;6.974;2023-02-19T01:56:22;5.55;;;2.50;;
52730;SDS011;38624;53.242;6.974;2023-02-19T01:58:50;3.35;;;2.17;;
52730;SDS011;38624;53.242;6.974;2023-02-19T02:01:17;2.55;;;2.00;;
52730;SDS011;38624;53.242;6.974;2023-02-19T02:03:43;2.72;;;1.98;;
52730;SDS011;38624;53.242;6.974;2023-02-19T02:06:17;2.80;;;1.80;;
52730;SDS011;38624;53.242;6.974;2023-02-19T02:08:48;3.00;;;1.95;;
52730;SDS011;38624;53.242;6.974;2023-02-19T02:11:35;4.30;;;2.33;;
52730;SDS011;38624;53.242;6.974;2023-02-19T02:14:04;3.78;;;2.10;;
52730;SDS011;38624;53.242;6.974;2023-02-19T02:16:37;3.13;;;2.10;;
52730;SDS011;38624;53.242;6.974;2023-02-19T02:19:29;3.03;;;1.92;;
52730;SDS011;38624;53.242;6.974;2023-02-19T02:22:17;3.75;;;2.50;;
52730;SDS011;38624;53.242;6.974;2023-02-19T02:31:08;5.28;;;2.70;;
52730;SDS011;38624;53.242;6.974;2023-02-19T02:34:03;5.45;;;2.75;;
52730;SDS011;38624;53.242;6.974;2023-02-19T02:36:43;5.32;;;2.80;;
52730;SDS011;38624;53.242;6.974;2023-02-19T02:39:12;5.43;;;3.05;;
52730;SDS011;38624;53.242;6.974;2023-02-19T02:41:44;3.67;;;2.75;;
52730;SDS011;38624;53.242;6.974;2023-02-19T02:44:34;4.00;;;2.90;;
52730;SDS011;38624;53.242;6.974;2023-02-19T02:47:00;4.68;;;2.92;;
52730;SDS011;38624;53.242;6.974;2023-02-19T02:49:29;4.05;;;2.70;;
52730;SDS011;38624;53.242;6.974;2023-02-19T02:51:55;4.25;;;2.55;;
52730;SDS011;38624;53.242;6.974;2023-02-19T02:54:25;3.72;;;2.72;;
52730;SDS011;38624;53.242;6.974;2023-02-19T02:57:13;4.00;;;2.88;;
52730;SDS011;38624;53.242;6.974;2023-02-19T02:59:40;5.25;;;3.15;;
52730;SDS011;38624;53.242;6.974;2023-02-19T03:07:36;4.10;;;2.80;;
52730;SDS011;38624;53.242;6.974;2023-02-19T03:10:10;5.03;;;2.60;;
52730;SDS011;38624;53.242;6.974;2023-02-19T03:12:41;3.40;;;2.30;;
52730;SDS011;38624;53.242;6.974;2023-02-19T03:15:28;3.65;;;2.33;;
52730;SDS011;38624;53.242;6.974;2023-02-19T03:18:19;3.10;;;2.20;;
52730;SDS011;38624;53.242;6.974;2023-02-19T03:21:05;3.63;;;2.47;;
52730;SDS011;38624;53.242;6.974;2023-02-19T03:23:32;3.80;;;2.60;;
52730;SDS011;38624;53.242;6.974;2023-02-19T03:26:19;3.85;;;2.35;;
52730;SDS011;38624;53.242;6.974;2023-02-19T03:28:46;4.00;;;2.92;;
52730;SDS011;38624;53.242;6.974;2023-02-19T03:31:32;3.92;;;2.58;;
52730;SDS011;38624;53.242;6.974;2023-02-19T03:34:00;4.22;;;2.78;;
52730;SDS011;38624;53.242;6.974;2023-02-19T03:36:32;3.72;;;2.65;;
52730;SDS011;38624;53.242;6.974;2023-02-19T03:39:06;4.05;;;2.50;;
52730;SDS011;38624;53.242;6.974;2023-02-19T03:41:43;3.10;;;2.30;;
52730;SDS011;38624;53.242;6.974;2023-02-19T03:44:19;3.85;;;2.42;;
52730;SDS011;38624;53.242;6.974;2023-02-19T03:57:46;3.42;;;2.42;;
52730;SDS011;38624;53.242;6.974;2023-02-19T04:00:22;4.15;;;2.45;;
52730;SDS011;38624;53.242;6.974;2023-02-19T04:02:52;3.92;;;2.30;;
52730;SDS011;38624;53.242;6.974;2023-02-19T04:05:34;4.40;;;2.67;;
52730;SDS011;38624;53.242;6.974;2023-02-19T04:08:10;4.25;;;2.30;;
52730;SDS011;38624;53.242;6.974;2023-02-19T04:10:42;4.07;;;2.53;;
52730;SDS011;38624;53.242;6.974;2023-02-19T04:13:21;4.32;;;2.38;;
52730;SDS011;38624;53.242;6.974;2023-02-19T04:15:51;4.03;;;2.60;;
52730;SDS011;38624;53.242;6.974;2023-02-19T04:18:21;4.35;;;2.47;;
52730;SDS011;38624;53.242;6.974;2023-02-19T04:20:52;5.40;;;2.40;;
52730;SDS011;38624;53.242;6.974;2023-02-19T04:23:20;3.45;;;2.30;;
52730;SDS011;38624;53.242;6.974;2023-02-19T04:25:49;3.22;;;2.35;;
52730;SDS011;38624;53.242;6.974;2023-02-19T04:28:18;5.47;;;2.55;;
52730;SDS011;38624;53.242;6.974;2023-02-19T04:30:44;4.88;;;2.88;;
52730;SDS011;38624;53.242;6.974;2023-02-19T04:33:11;3.83;;;2.50;;
52730;SDS011;38624;53.242;6.974;2023-02-19T04:35:36;4.78;;;2.67;;
52730;SDS011;38624;53.242;6.974;2023-02-19T04:38:02;3.65;;;2.55;;
52730;SDS011;38624;53.242;6.974;2023-02-19T04:40:28;4.63;;;2.60;;
52730;SDS011;38624;53.242;6.974;2023-02-19T04:42:54;4.25;;;2.47;;
52730;SDS011;38624;53.242;6.974;2023-02-19T04:45:19;4.97;;;2.50;;
52730;SDS011;38624;53.242;6.974;2023-02-19T04:47:45;5.38;;;2.38;;
52730;SDS011;38624;53.242;6.974;2023-02-19T04:50:11;3.25;;;2.10;;
52730;SDS011;38624;53.242;6.974;2023-02-19T04:52:37;3.53;;;1.80;;
52730;SDS011;38624;53.242;6.974;2023-02-19T04:55:03;3.10;;;2.00;;
52730;SDS011;38624;53.242;6.974;2023-02-19T04:57:29;4.30;;;1.80;;
52730;SDS011;38624;53.242;6.974;2023-02-19T04:59:55;3.88;;;1.60;;
52730;SDS011;38624;53.242;6.974;2023-02-19T05:02:20;2.15;;;1.60;;
52730;SDS011;38624;53.242;6.974;2023-02-19T05:04:46;2.70;;;1.50;;
52730;SDS011;38624;53.242;6.974;2023-02-19T05:07:12;4.73;;;1.77;;
52730;SDS011;38624;53.242;6.974;2023-02-19T05:09:38;2.30;;;1.45;;
52730;SDS011;38624;53.242;6.974;2023-02-19T05:12:04;3.30;;;1.35;;
52730;SDS011;38624;53.242;6.974;2023-02-19T05:14:30;1.35;;;1.20;;
52730;SDS011;38624;53.242;6.974;2023-02-19T05:16:55;4.53;;;1.30;;
52730;SDS011;38624;53.242;6.974;2023-02-19T05:19:21;3.33;;;1.65;;
52730;SDS011;38624;53.242;6.974;2023-02-19T05:21:47;2.72;;;1.20;;
52730;SDS011;38624;53.242;6.974;2023-02-19T05:24:12;3.67;;;1.40;;
52730;SDS011;38624;53.242;6.974;2023-02-19T05:26:38;3.72;;;1.30;;
52730;SDS011;38624;53.242;6.974;2023-02-19T05:29:04;2.60;;;1.40;;
52730;SDS011;38624;53.242;6.974;2023-02-19T05:31:29;8.13;;;1.60;;
52730;SDS011;38624;53.242;6.974;2023-02-19T05:33:57;4.40;;;2.00;;
52730;SDS011;38624;53.242;6.974;2023-02-19T05:36:23;6.90;;;2.10;;
52730;SDS011;38624;53.242;6.974;2023-02-19T05:38:52;7.35;;;1.95;;
52730;SDS011;38624;53.242;6.974;2023-02-19T05:41:21;6.20;;;1.92;;
52730;SDS011;38624;53.242;6.974;2023-02-19T05:43:48;8.02;;;2.22;;
52730;SDS011;38624;53.242;6.974;2023-02-19T05:46:16;6.20;;;2.00;;
52730;SDS011;38624;53.242;6.974;2023-02-19T05:48:44;7.35;;;2.03;;
52730;SDS011;38624;53.242;6.974;2023-02-19T05:51:11;4.53;;;1.83;;
52730;SDS011;38624;53.242;6.974;2023-02-19T05:53:39;4.18;;;2.03;;
52730;SDS011;38624;53.242;6.974;2023-02-19T05:58:54;5.35;;;2.10;;
52730;SDS011;38624;53.242;6.974;2023-02-19T06:01:21;6.88;;;2.17;;
52730;SDS011;38624;53.242;6.974;2023-02-19T06:03:48;5.30;;;2.00;;
52730;SDS011;38624;53.242;6.974;2023-02-19T06:06:15;4.28;;;2.05;;
52730;SDS011;38624;53.242;6.974;2023-02-19T06:08:42;5.35;;;2.25;;
52730;SDS011;38624;53.242;6.974;2023-02-19T06:11:07;6.53;;;2.17;;
52730;SDS011;38624;53.242;6.974;2023-02-19T06:13:33;6.10;;;2.47;;
52730;SDS011;38624;53.242;6.974;2023-02-19T06:16:02;5.60;;;2.42;;
52730;SDS011;38624;53.242;6.974;2023-02-19T06:18:28;6.20;;;2.40;;
52730;SDS011;38624;53.242;6.974;2023-02-19T06:20:59;4.43;;;2.22;;
52730;SDS011;38624;53.242;6.974;2023-02-19T06:23:29;5.63;;;2.38;;
52730;SDS011;38624;53.242;6.974;2023-02-19T06:26:03;4.50;;;2.50;;
52730;SDS011;38624;53.242;6.974;2023-02-19T06:28:49;6.63;;;2.47;;
52730;SDS011;38624;53.242;6.974;2023-02-19T06:31:17;8.25;;;2.42;;
52730;SDS011;38624;53.242;6.974;2023-02-19T06:33:43;6.13;;;2.30;;
52730;SDS011;38624;53.242;6.974;2023-02-19T06:36:11;4.88;;;2.35;;
52730;SDS011;38624;53.242;6.974;2023-02-19T06:38:38;7.88;;;2.70;;
52730;SDS011;38624;53.242;6.974;2023-02-19T06:41:04;6.82;;;2.45;;
52730;SDS011;38624;53.242;6.974;2023-02-19T06:43:31;5.63;;;2.30;;
52730;SDS011;38624;53.242;6.974;2023-02-19T06:45:58;5.65;;;2.60;;
52730;SDS011;38624;53.242;6.974;2023-02-19T06:48:25;5.47;;;2.28;;
52730;SDS011;38624;53.242;6.974;2023-02-19T06:50:52;5.35;;;2.30;;
52730;SDS011;38624;53.242;6.974;2023-02-19T06:53:18;6.00;;;2.23;;
52730;SDS011;38624;53.242;6.974;2023-02-19T06:55:53;3.08;;;2.00;;
52730;SDS011;38624;53.242;6.974;2023-02-19T06:58:23;5.72;;;1.85;;
52730;SDS011;38624;53.242;6.974;2023-02-19T07:00:49;8.68;;;2.17;;
52730;SDS011;38624;53.242;6.974;2023-02-19T07:03:15;7.18;;;2.22;;
52730;SDS011;38624;53.242;6.974;2023-02-19T07:05:41;7.00;;;1.88;;
52730;SDS011;38624;53.242;6.974;2023-02-19T07:08:08;4.70;;;1.98;;
52730;SDS011;38624;53.242;6.974;2023-02-19T07:10:33;5.80;;;1.80;;
52730;SDS011;38624;53.242;6.974;2023-02-19T07:12:59;5.70;;;2.13;;
52730;SDS011;38624;53.242;6.974;2023-02-19T07:15:25;5.72;;;2.05;;
52730;SDS011;38624;53.242;6.974;2023-02-19T07:17:50;6.28;;;1.95;;
52730;SDS011;38624;53.242;6.974;2023-02-19T07:20:16;4.35;;;1.88;;
52730;SDS011;38624;53.242;6.974;2023-02-19T07:22:42;3.20;;;1.42;;
52730;SDS011;38624;53.242;6.974;2023-02-19T07:25:07;3.50;;;1.42;;
52730;SDS011;38624;53.242;6.974;2023-02-19T07:27:33;6.28;;;1.42;;
52730;SDS011;38624;53.242;6.974;2023-02-19T07:29:59;5.78;;;1.80;;
52730;SDS011;38624;53.242;6.974;2023-02-19T07:32:26;3.50;;;1.50;;
52730;SDS011;38624;53.242;6.974;2023-02-19T07:34:51;6.55;;;1.73;;
52730;SDS011;38624;53.242;6.974;2023-02-19T07:37:17;3.47;;;1.77;;
52730;SDS011;38624;53.242;6.974;2023-02-19T07:39:43;6.38;;;1.73;;
52730;SDS011;38624;53.242;6.974;2023-02-19T07:42:08;4.03;;;1.80;;
52730;SDS011;38624;53.242;6.974;2023-02-19T07:44:34;6.68;;;2.20;;
52730;SDS011;38624;53.242;6.974;2023-02-19T07:47:00;4.60;;;2.05;;
52730;SDS011;38624;53.242;6.974;2023-02-19T07:49:25;6.95;;;2.00;;
52730;SDS011;38624;53.242;6.974;2023-02-19T07:51:51;6.20;;;1.80;;
52730;SDS011;38624;53.242;6.974;2023-02-19T07:54:17;4.35;;;1.80;;
52730;SDS011;38624;53.242;6.974;2023-02-19T07:56:42;5.05;;;2.00;;
52730;SDS011;38624;53.242;6.974;2023-02-19T07:59:08;4.28;;;1.70;;
52730;SDS011;38624;53.242;6.974;2023-02-19T08:01:34;5.20;;;1.52;;
52730;SDS011;38624;53.242;6.974;2023-02-19T08:04:18;5.07;;;1.80;;
52730;SDS011;38624;53.242;6.974;2023-02-19T08:06:44;5.25;;;1.80;;
52730;SDS011;38624;53.242;6.974;2023-02-19T08:09:10;3.92;;;1.65;;
52730;SDS011;38624;53.242;6.974;2023-02-19T08:11:36;4.18;;;1.67;;
52730;SDS011;38624;53.242;6.974;2023-02-19T08:14:23;5.55;;;1.52;;
52730;SDS011;38624;53.242;6.974;2023-02-19T08:16:52;4.50;;;1.15;;
52730;SDS011;38624;53.242;6.974;2023-02-19T08:19:18;6.10;;;1.67;;
52730;SDS011;38624;53.242;6.974;2023-02-19T08:21:45;5.65;;;1.73;;
52730;SDS011;38624;53.242;6.974;2023-02-19T08:24:10;3.80;;;1.40;;
52730;SDS011;38624;53.242;6.974;2023-02-19T08:26:36;5.13;;;1.30;;
52730;SDS011;38624;53.242;6.974;2023-02-19T08:29:02;3.78;;;1.38;;
52730;SDS011;38624;53.242;6.974;2023-02-19T08:33:54;9.25;;;1.80;;
52730;SDS011;38624;53.242;6.974;2023-02-19T08:36:20;7.72;;;1.75;;
52730;SDS011;38624;53.242;6.974;2023-02-19T08:38:46;7.18;;;1.60;;
52730;SDS011;38624;53.242;6.974;2023-02-19T08:41:12;4.68;;;1.50;;
52730;SDS011;38624;53.242;6.974;2023-02-19T08:43:39;5.65;;;1.10;;
52730;SDS011;38624;53.242;6.974;2023-02-19T08:46:05;4.95;;;1.48;;
52730;SDS011;38624;53.242;6.974;2023-02-19T08:48:34;4.50;;;1.40;;
52730;SDS011;38624;53.242;6.974;2023-02-19T08:51:00;3.25;;;1.40;;
52730;SDS011;38624;53.242;6.974;2023-02-19T08:53:28;6.43;;;1.58;;
52730;SDS011;38624;53.242;6.974;2023-02-19T08:56:02;2.63;;;1.48;;
52730;SDS011;38624;53.242;6.974;2023-02-19T08:58:32;6.07;;;1.30;;
52730;SDS011;38624;53.242;6.974;2023-02-19T09:00:59;5.80;;;1.33;;
52730;SDS011;38624;53.242;6.974;2023-02-19T09:03:24;9.07;;;1.48;;
52730;SDS011;38624;53.242;6.974;2023-02-19T09:05:51;4.35;;;1.50;;
52730;SDS011;38624;53.242;6.974;2023-02-19T09:08:16;4.57;;;1.10;;
52730;SDS011;38624;53.242;6.974;2023-02-19T09:10:43;4.10;;;1.40;;
52730;SDS011;38624;53.242;6.974;2023-02-19T09:13:09;6.10;;;1.80;;
52730;SDS011;38624;53.242;6.974;2023-02-19T09:15:36;4.03;;;1.80;;
52730;SDS011;38624;53.242;6.974;2023-02-19T09:18:02;5.93;;;1.60;;
52730;SDS011;38624;53.242;6.974;2023-02-19T09:20:28;3.50;;;1.13;;
52730;SDS011;38624;53.242;6.974;2023-02-19T09:22:57;4.95;;;1.20;;
52730;SDS011;38624;53.242;6.974;2023-02-19T09:25:23;4.60;;;1.40;;
52730;SDS011;38624;53.242;6.974;2023-02-19T09:27:52;4.72;;;1.42;;
52730;SDS011;38624;53.242;6.974;2023-02-19T09:30:21;3.72;;;1.30;;
52730;SDS011;38624;53.242;6.974;2023-02-19T09:32:46;6.07;;;1.48;;
52730;SDS011;38624;53.242;6.974;2023-02-19T09:35:12;6.20;;;1.52;;
52730;SDS011;38624;53.242;6.974;2023-02-19T09:37:38;3.95;;;1.60;;
52730;SDS011;38624;53.242;6.974;2023-02-19T09:40:04;2.45;;;1.20;;
52730;SDS011;38624;53.242;6.974;2023-02-19T09:42:30;7.72;;;1.45;;
52730;SDS011;38624;53.242;6.974;2023-02-19T09:44:58;8.30;;;1.80;;
52730;SDS011;38624;53.242;6.974;2023-02-19T09:47:28;5.68;;;1.33;;
52730;SDS011;38624;53.242;6.974;2023-02-19T09:50:01;3.72;;;1.63;;
52730;SDS011;38624;53.242;6.974;2023-02-19T09:57:44;5.32;;;1.77;;
52730;SDS011;38624;53.242;6.974;2023-02-19T10:02:39;6.55;;;1.90;;
52730;SDS011;38624;53.242;6.974;2023-02-19T10:05:09;7.53;;;1.90;;
52730;SDS011;38624;53.242;6.974;2023-02-19T10:07:44;6.05;;;1.75;;
52730;SDS011;38624;53.242;6.974;2023-02-19T10:12:50;5.15;;;1.85;;
52730;SDS011;38624;53.242;6.974;2023-02-19T10:18:00;5.97;;;1.73;;
52730;SDS011;38624;53.242;6.974;2023-02-19T10:20:27;5.30;;;1.60;;
52730;SDS011;38624;53.242;6.974;2023-02-19T10:22:58;7.07;;;1.77;;
52730;SDS011;38624;53.242;6.974;2023-02-19T10:25:27;5.03;;;1.33;;
52730;SDS011;38624;53.242;6.974;2023-02-19T10:30:23;3.50;;;1.20;;
52730;SDS011;38624;53.242;6.974;2023-02-19T10:33:09;4.80;;;1.13;;
52730;SDS011;38624;53.242;6.974;2023-02-19T10:35:36;6.10;;;1.20;;
52730;SDS011;38624;53.242;6.974;2023-02-19T10:38:33;6.35;;;1.40;;
52730;SDS011;38624;53.242;6.974;2023-02-19T10:43:55;3.85;;;1.20;;
52730;SDS011;38624;53.242;6.974;2023-02-19T10:46:32;5.20;;;1.73;;
52730;SDS011;38624;53.242;6.974;2023-02-19T10:49:01;4.93;;;1.25;;
52730;SDS011;38624;53.242;6.974;2023-02-19T10:51:31;4.50;;;1.30;;
52730;SDS011;38624;53.242;6.974;2023-02-19T10:54:08;5.22;;;1.50;;
52730;SDS011;38624;53.242;6.974;2023-02-19T11:00:23;3.55;;;1.23;;
52730;SDS011;38624;53.242;6.974;2023-02-19T11:05:51;4.85;;;1.23;;
52730;SDS011;38624;53.242;6.974;2023-02-19T11:08:24;6.50;;;1.38;;
52730;SDS011;38624;53.242;6.974;2023-02-19T11:10:49;4.47;;;1.42;;
52730;SDS011;38624;53.242;6.974;2023-02-19T11:13:19;3.85;;;1.38;;
52730;SDS011;38624;53.242;6.974;2023-02-19T11:15:55;7.78;;;1.35;;
52730;SDS011;38624;53.242;6.974;2023-02-19T11:18:29;6.40;;;1.58;;
52730;SDS011;38624;53.242;6.974;2023-02-19T11:21:00;4.97;;;1.40;;
52730;SDS011;38624;53.242;6.974;2023-02-19T11:23:33;7.38;;;1.20;;
52730;SDS011;38624;53.242;6.974;2023-02-19T11:26:04;5.32;;;1.20;;
52730;SDS011;38624;53.242;6.974;2023-02-19T11:28:40;4.05;;;1.23;;
52730;SDS011;38624;53.242;6.974;2023-02-19T11:31:14;8.20;;;1.13;;
52730;SDS011;38624;53.242;6.974;2023-02-19T11:33:56;5.28;;;1.20;;
52730;SDS011;38624;53.242;6.974;2023-02-19T11:37:09;6.35;;;1.17;;
52730;SDS011;38624;53.242;6.974;2023-02-19T11:39:43;5.70;;;1.08;;
52730;SDS011;38624;53.242;6.974;2023-02-19T11:42:14;5.82;;;0.93;;
52730;SDS011;38624;53.242;6.974;2023-02-19T11:45:16;4.35;;;1.10;;
52730;SDS011;38624;53.242;6.974;2023-02-19T11:50:51;4.90;;;1.10;;
52730;SDS011;38624;53.242;6.974;2023-02-19T11:53:26;4.20;;;1.00;;
52730;SDS011;38624;53.242;6.974;2023-02-19T12:04:07;3.42;;;1.10;;
52730;SDS011;38624;53.242;6.974;2023-02-19T12:07:18;2.03;;;0.70;;
52730;SDS011;38624;53.242;6.974;2023-02-19T12:09:58;5.00;;;1.27;;
52730;SDS011;38624;53.242;6.974;2023-02-19T12:15:21;6.18;;;1.60;;
52730;SDS011;38624;53.242;6.974;2023-02-19T12:43:23;6.13;;;1.10;;
52730;SDS011;38624;53.242;6.974;2023-02-19T12:50:56;4.85;;;1.00;;
52730;SDS011;38624;53.242;6.974;2023-02-19T12:53:32;3.85;;;0.88;;
52730;SDS011;38624;53.242;6.974;2023-02-19T12:56:05;4.78;;;1.23;;
52730;SDS011;38624;53.242;6.974;2023-02-19T12:58:43;3.97;;;1.00;;
52730;SDS011;38624;53.242;6.974;2023-02-19T13:01:17;4.70;;;1.13;;
52730;SDS011;38624;53.242;6.974;2023-02-19T13:03:49;5.45;;;1.05;;
52730;SDS011;38624;53.242;6.974;2023-02-19T13:06:41;2.97;;;0.90;;
52730;SDS011;38624;53.242;6.974;2023-02-19T13:09:14;6.70;;;1.20;;
52730;SDS011;38624;53.242;6.974;2023-02-19T13:19:54;3.88;;;0.85;;
52730;SDS011;38624;53.242;6.974;2023-02-19T13:22:26;3.85;;;0.80;;
52730;SDS011;38624;53.242;6.974;2023-02-19T13:25:21;4.53;;;0.70;;
52730;SDS011;38624;53.242;6.974;2023-02-19T13:28:06;1.92;;;0.70;;
52730;SDS011;38624;53.242;6.974;2023-02-19T13:36:25;5.47;;;0.93;;
52730;SDS011;38624;53.242;6.974;2023-02-19T13:38:53;2.58;;;0.70;;
52730;SDS011;38624;53.242;6.974;2023-02-19T13:41:32;5.30;;;1.20;;
52730;SDS011;38624;53.242;6.974;2023-02-19T13:44:05;3.65;;;0.90;;
52730;SDS011;38624;53.242;6.974;2023-02-19T13:46:40;4.90;;;0.90;;
52730;SDS011;38624;53.242;6.974;2023-02-19T13:51:55;3.22;;;1.02;;
52730;SDS011;38624;53.242;6.974;2023-02-19T13:57:36;4.20;;;1.05;;
52730;SDS011;38624;53.242;6.974;2023-02-19T13:59:42;4.15;;;0.90;;
52730;SDS011;38624;53.242;6.974;2023-02-19T14:14:45;4.32;;;1.15;;
52730;SDS011;38624;53.242;6.974;2023-02-19T14:33:27;4.97;;;1.40;;
52730;SDS011;38624;53.242;6.974;2023-02-19T14:38:34;4.22;;;1.20;;
52730;SDS011;38624;53.242;6.974;2023-02-19T14:41:11;7.07;;;1.23;;
52730;SDS011;38624;53.242;6.974;2023-02-19T14:43:38;6.18;;;1.40;;
52730;SDS011;38624;53.242;6.974;2023-02-19T14:46:13;4.55;;;1.13;;
52730;SDS011;38624;53.242;6.974;2023-02-19T14:48:48;7.43;;;1.83;;
52730;SDS011;38624;53.242;6.974;2023-02-19T14:54:03;9.43;;;1.38;;
52730;SDS011;38624;53.242;6.974;2023-02-19T14:56:39;5.53;;;1.20;;
52730;SDS011;38624;53.242;6.974;2023-02-19T15:01:36;6.32;;;1.10;;
52730;SDS011;38624;53.242;6.974;2023-02-19T15:04:02;3.27;;;1.30;;
52730;SDS011;38624;53.242;6.974;2023-02-19T15:06:29;3.88;;;1.20;;
52730;SDS011;38624;53.242;6.974;2023-02-19T15:08:59;7.35;;;1.48;;
52730;SDS011;38624;53.242;6.974;2023-02-19T15:11:29;8.13;;;1.50;;
52730;SDS011;38624;53.242;6.974;2023-02-19T15:14:03;4.95;;;1.15;;
52730;SDS011;38624;53.242;6.974;2023-02-19T15:16:31;6.32;;;1.40;;
52730;SDS011;38624;53.242;6.974;2023-02-19T15:18:59;5.00;;;1.00;;
52730;SDS011;38624;53.242;6.974;2023-02-19T15:21:32;6.32;;;1.13;;
52730;SDS011;38624;53.242;6.974;2023-02-19T15:24:02;4.60;;;1.00;;
52730;SDS011;38624;53.242;6.974;2023-02-19T15:29:07;4.22;;;1.20;;
52730;SDS011;38624;53.242;6.974;2023-02-19T15:31:48;5.82;;;1.00;;
52730;SDS011;38624;53.242;6.974;2023-02-19T15:34:23;7.93;;;1.33;;
52730;SDS011;38624;53.242;6.974;2023-02-19T15:37:00;5.97;;;1.13;;
52730;SDS011;38624;53.242;6.974;2023-02-19T15:42:03;8.75;;;1.35;;
52730;SDS011;38624;53.242;6.974;2023-02-19T15:44:33;5.47;;;1.52;;
52730;SDS011;38624;53.242;6.974;2023-02-19T15:47:08;6.07;;;1.42;;
52730;SDS011;38624;53.242;6.974;2023-02-19T15:49:44;9.70;;;1.70;;
52730;SDS011;38624;53.242;6.974;2023-02-19T15:52:23;4.32;;;1.00;;
52730;SDS011;38624;53.242;6.974;2023-02-19T15:57:40;4.68;;;1.13;;
52730;SDS011;38624;53.242;6.974;2023-02-19T16:00:13;5.72;;;1.25;;
52730;SDS011;38624;53.242;6.974;2023-02-19T16:02:52;5.82;;;1.30;;
52730;SDS011;38624;53.242;6.974;2023-02-19T16:05:25;7.15;;;1.30;;
52730;SDS011;38624;53.242;6.974;2023-02-19T16:10:36;6.53;;;1.20;;
52730;SDS011;38624;53.242;6.974;2023-02-19T16:13:03;5.25;;;1.30;;
52730;SDS011;38624;53.242;6.974;2023-02-19T16:15:32;6.32;;;1.10;;
52730;SDS011;38624;53.242;6.974;2023-02-19T16:17:58;7.95;;;1.40;;
52730;SDS011;38624;53.242;6.974;2023-02-19T16:20:31;8.30;;;1.27;;
52730;SDS011;38624;53.242;6.974;2023-02-19T16:23:12;5.43;;;1.25;;
52730;SDS011;38624;53.242;6.974;2023-02-19T16:25:41;5.88;;;1.27;;
52730;SDS011;38624;53.242;6.974;2023-02-19T16:28:13;6.13;;;1.10;;
52730;SDS011;38624;53.242;6.974;2023-02-19T16:30:45;7.18;;;1.30;;
52730;SDS011;38624;53.242;6.974;2023-02-19T16:33:18;5.82;;;1.17;;
52730;SDS011;38624;53.242;6.974;2023-02-19T16:41:40;8.20;;;1.20;;
52730;SDS011;38624;53.242;6.974;2023-02-19T16:46:52;8.27;;;1.70;;
52730;SDS011;38624;53.242;6.974;2023-02-19T16:49:21;3.38;;;1.20;;
52730;SDS011;38624;53.242;6.974;2023-02-19T16:51:48;11.38;;;1.83;;
52730;SDS011;38624;53.242;6.974;2023-02-19T16:54:15;7.10;;;1.55;;
52730;SDS011;38624;53.242;6.974;2023-02-19T16:56:41;5.70;;;1.20;;
52730;SDS011;38624;53.242;6.974;2023-02-19T16:59:06;6.15;;;1.13;;
52730;SDS011;38624;53.242;6.974;2023-02-19T17:01:32;6.85;;;1.38;;
52730;SDS011;38624;53.242;6.974;2023-02-19T17:04:01;6.03;;;1.70;;
52730;SDS011;38624;53.242;6.974;2023-02-19T17:06:32;5.10;;;1.27;;
52730;SDS011;38624;53.242;6.974;2023-02-19T17:08:59;6.93;;;1.25;;
52730;SDS011;38624;53.242;6.974;2023-02-19T17:11:25;8.93;;;1.63;;
52730;SDS011;38624;53.242;6.974;2023-02-19T17:13:51;4.32;;;1.20;;
52730;SDS011;38624;53.242;6.974;2023-02-19T17:16:17;7.63;;;1.45;;
52730;SDS011;38624;53.242;6.974;2023-02-19T17:18:48;5.43;;;1.42;;
52730;SDS011;38624;53.242;6.974;2023-02-19T17:21:16;7.90;;;1.60;;
52730;SDS011;38624;53.242;6.974;2023-02-19T17:23:49;5.93;;;1.50;;
52730;SDS011;38624;53.242;6.974;2023-02-19T17:26:16;4.68;;;1.27;;
52730;SDS011;38624;53.242;6.974;2023-02-19T17:28:47;4.20;;;1.25;;
52730;SDS011;38624;53.242;6.974;2023-02-19T17:31:12;6.60;;;1.52;;
52730;SDS011;38624;53.242;6.974;2023-02-19T17:33:38;5.40;;;1.50;;
52730;SDS011;38624;53.242;6.974;2023-02-19T17:36:05;8.33;;;1.53;;
52730;SDS011;38624;53.242;6.974;2023-02-19T17:38:31;6.00;;;1.38;;
52730;SDS011;38624;53.242;6.974;2023-02-19T17:40:57;7.90;;;1.35;;
52730;SDS011;38624;53.242;6.974;2023-02-19T17:43:23;10.52;;;1.73;;
52730;SDS011;38624;53.242;6.974;2023-02-19T17:45:49;7.20;;;1.85;;
52730;SDS011;38624;53.242;6.974;2023-02-19T17:48:15;6.15;;;1.65;;
52730;SDS011;38624;53.242;6.974;2023-02-19T17:50:41;11.07;;;1.80;;
52730;SDS011;38624;53.242;6.974;2023-02-19T17:53:07;6.82;;;1.75;;
52730;SDS011;38624;53.242;6.974;2023-02-19T17:55:33;6.20;;;1.80;;
52730;SDS011;38624;53.242;6.974;2023-02-19T17:57:59;8.48;;;1.80;;